Time;durP1;ratioP1;P1;durP2;ratioP2;P2;SDS_P1;SDS_P2;PMS_P1;PMS_P2;Temp;Humidity;BMP_temperature;BMP_pressure;BME280_temperature;BME280_humidity;BME280_pressure;Samples;Min_cycle;Max_cycle;Signal;HPM_P1;HPM_P2
2023/09/20 00:01:50;;;;;;;2.95;1.20;;;16.40;99.90;;;;;;5091783;28;20481;-88
2023/09/20 00:04:15;;;;;;;4.07;1.02;;;16.40;99.90;;;;;;5092169;28;20035;-88
2023/09/20 00:06:42;;;;;;;2.88;1.10;;;16.40;99.90;;;;;;5092392;28;20028;-89
2023/09/20 00:09:08;;;;;;;2.92;0.93;;;16.30;99.90;;;;;;5092626;28;20032;-89
2023/09/20 00:11:35;;;;;;;2.10;0.75;;;16.30;99.90;;;;;;5093290;28;20028;-88
2023/09/20 00:14:00;;;;;;;3.72;0.90;;;16.30;99.90;;;;;;5091778;28;20040;-90
2023/09/20 00:16:28;;;;;;;4.18;1.00;;;16.20;99.90;;;;;;5092268;28;20086;-89
2023/09/20 00:18:54;;;;;;;3.78;0.77;;;16.20;99.90;;;;;;5092289;28;20032;-91
2023/09/20 00:21:20;;;;;;;2.72;0.80;;;16.10;99.90;;;;;;5092335;28;20035;-91
2023/09/20 00:23:46;;;;;;;1.95;0.60;;;16.10;99.90;;;;;;5093544;28;20094;-88
2023/09/20 00:26:13;;;;;;;2.65;0.77;;;16.10;99.90;;;;;;5092083;28;20081;-88
2023/09/20 00:28:39;;;;;;;2.80;0.88;;;16.20;99.90;;;;;;5091888;28;20020;-89
2023/09/20 00:31:05;;;;;;;3.03;0.80;;;16.20;99.90;;;;;;5091927;28;20496;-87
2023/09/20 00:33:32;;;;;;;4.65;0.88;;;16.10;99.90;;;;;;5092824;28;20071;-89
2023/09/20 00:35:57;;;;;;;2.10;0.70;;;16.10;99.90;;;;;;5092752;28;20408;-90
2023/09/20 00:38:24;;;;;;;2.00;0.80;;;16.10;99.90;;;;;;5093052;28;20028;-89
2023/09/20 00:40:50;;;;;;;3.97;0.77;;;16.10;99.90;;;;;;5093023;28;20456;-91
2023/09/20 00:43:23;;;;;;;2.03;0.77;;;16.10;99.90;;;;;;5093021;28;20024;-88
2023/09/20 00:45:49;;;;;;;3.53;0.95;;;16.10;99.90;;;;;;5091782;28;20039;-90
2023/09/20 00:48:16;;;;;;;2.30;0.65;;;16.10;99.90;;;;;;5091712;28;20028;-90
2023/09/20 00:50:43;;;;;;;5.13;1.25;;;16.10;99.90;;;;;;5092372;28;20511;-88
2023/09/20 00:53:11;;;;;;;5.72;0.70;;;16.10;99.90;;;;;;5092385;28;20173;-90
2023/09/20 00:55:38;;;;;;;7.00;0.88;;;16.10;99.90;;;;;;5091469;28;20430;-89
2023/09/20 00:58:15;;;;;;;1.92;0.85;;;16.00;99.90;;;;;;5090850;28;20032;-89
2023/09/20 01:00:43;;;;;;;1.90;0.70;;;16.00;99.90;;;;;;5091520;28;20051;-87
2023/09/20 01:03:15;;;;;;;2.58;0.80;;;15.90;99.90;;;;;;5091655;28;20366;-88
2023/09/20 01:05:42;;;;;;;3.95;1.00;;;15.90;99.90;;;;;;5091440;28;20416;-87
2023/09/20 01:08:08;;;;;;;1.98;0.90;;;15.80;99.90;;;;;;5091259;28;20028;-89
2023/09/20 01:10:37;;;;;;;1.52;0.60;;;15.80;99.90;;;;;;5091314;28;20028;-87
2023/09/20 01:13:09;;;;;;;3.03;0.80;;;15.80;99.90;;;;;;5092465;28;20111;-89
2023/09/20 01:15:36;;;;;;;2.15;0.77;;;15.70;99.90;;;;;;5092154;28;20531;-87
2023/09/20 01:18:04;;;;;;;2.35;0.88;;;15.70;99.90;;;;;;5091434;28;20051;-89
2023/09/20 01:20:33;;;;;;;1.92;0.80;;;15.60;99.90;;;;;;5092493;28;20109;-87
2023/09/20 01:22:59;;;;;;;4.85;0.90;;;15.60;99.90;;;;;;5091130;28;20020;-88
2023/09/20 01:25:36;;;;;;;2.85;1.10;;;15.50;99.90;;;;;;5090755;28;20401;-87
2023/09/20 01:28:04;;;;;;;2.20;0.80;;;15.50;99.90;;;;;;5091071;28;20024;-87
2023/09/20 01:30:36;;;;;;;10.40;1.10;;;15.40;99.90;;;;;;5091397;28;20028;-88
2023/09/20 01:33:05;;;;;;;2.72;0.98;;;15.40;99.90;;;;;;5091959;28;20028;-88
2023/09/20 01:35:31;;;;;;;5.68;1.00;;;15.30;99.90;;;;;;5091968;28;20035;-91
2023/09/20 01:37:58;;;;;;;2.40;0.85;;;15.20;99.90;;;;;;5091427;28;20110;-90
2023/09/20 01:40:33;;;;;;;2.63;0.82;;;15.20;99.90;;;;;;5092269;28;20082;-90
2023/09/20 01:42:59;;;;;;;2.28;1.10;;;15.20;99.90;;;;;;5090466;28;20385;-86
2023/09/20 01:45:25;;;;;;;5.32;1.17;;;15.20;99.90;;;;;;5091372;28;20028;-88
2023/09/20 01:47:53;;;;;;;1.80;0.95;;;15.20;99.90;;;;;;5091649;28;20026;-89
2023/09/20 01:50:21;;;;;;;3.75;0.80;;;15.20;99.90;;;;;;5089951;28;20040;-87
2023/09/20 01:52:50;;;;;;;1.52;0.80;;;15.20;99.90;;;;;;5089660;28;20054;-86
2023/09/20 01:55:18;;;;;;;1.65;1.00;;;15.20;99.90;;;;;;5090289;28;20126;-87
2023/09/20 01:57:45;;;;;;;3.08;0.80;;;15.20;99.90;;;;;;5090594;28;20556;-89
2023/09/20 02:00:57;;;;;;;2.22;1.02;;;15.20;99.90;;;;;;5090526;28;20480;-89
2023/09/20 02:03:13;;;;;;;7.38;0.98;;;15.20;99.90;;;;;;5085761;28;20541;-89
2023/09/20 02:05:40;;;;;;;5.35;1.65;;;15.10;99.90;;;;;;5091412;28;20578;-90
2023/09/20 02:08:08;;;;;;;2.20;0.80;;;15.20;99.90;;;;;;5090831;28;20099;-88
2023/09/20 02:10:34;;;;;;;4.78;1.10;;;15.10;99.90;;;;;;5091194;28;20028;-88
2023/09/20 02:13:00;;;;;;;3.20;0.90;;;15.10;99.90;;;;;;5089918;28;20100;-89
2023/09/20 02:15:31;;;;;;;2.08;0.93;;;15.00;99.90;;;;;;5090186;28;20489;-89
2023/09/20 02:17:57;;;;;;;4.90;1.48;;;15.00;99.90;;;;;;5091484;28;20032;-88
2023/09/20 02:20:24;;;;;;;2.80;1.02;;;15.00;99.90;;;;;;5089285;28;20102;-86
2023/09/20 02:22:55;;;;;;;1.85;0.93;;;15.10;99.90;;;;;;5090214;28;20016;-88
2023/09/20 02:25:22;;;;;;;2.13;0.70;;;15.00;99.90;;;;;;5088902;28;20052;-88
2023/09/20 02:27:49;;;;;;;3.60;0.80;;;15.00;99.90;;;;;;5089535;28;20031;-84
2023/09/20 02:30:19;;;;;;;1.67;0.85;;;14.90;99.90;;;;;;5088920;28;20416;-90
2023/09/20 02:32:46;;;;;;;2.53;0.80;;;14.80;99.90;;;;;;5089591;28;20120;-90
2023/09/20 02:35:12;;;;;;;1.90;0.95;;;14.80;99.90;;;;;;5091003;28;20031;-89
2023/09/20 02:37:40;;;;;;;2.45;1.27;;;14.80;99.90;;;;;;5088914;28;20046;-88
2023/09/20 02:40:07;;;;;;;2.75;0.93;;;14.70;99.90;;;;;;5089608;28;20059;-88
2023/09/20 02:42:43;;;;;;;2.85;0.68;;;14.80;99.90;;;;;;5090365;28;20024;-88
2023/09/20 02:45:09;;;;;;;2.40;0.88;;;14.70;99.90;;;;;;5090663;28;20077;-89
2023/09/20 02:47:34;;;;;;;3.72;0.88;;;14.70;99.90;;;;;;5090447;28;20039;-89
2023/09/20 02:50:01;;;;;;;4.88;0.68;;;14.70;99.90;;;;;;5091173;28;20027;-88
2023/09/20 02:52:26;;;;;;;2.72;0.90;;;14.70;99.90;;;;;;5089735;28;20028;-88
2023/09/20 02:54:52;;;;;;;6.28;0.88;;;14.60;99.90;;;;;;5089231;28;20412;-88
2023/09/20 02:57:18;;;;;;;3.00;0.90;;;14.60;99.90;;;;;;5090318;28;20583;-90
2023/09/20 02:59:44;;;;;;;2.55;1.20;;;14.60;99.90;;;;;;5089430;28;20115;-91
2023/09/20 03:02:10;;;;;;;1.65;0.68;;;14.60;99.90;;;;;;5090630;28;20513;-90
2023/09/20 03:04:38;;;;;;;5.05;1.10;;;14.60;99.90;;;;;;5089795;28;20435;-89
2023/09/20 03:07:09;;;;;;;2.03;0.77;;;14.60;99.90;;;;;;5089891;28;20032;-89
2023/09/20 03:09:36;;;;;;;1.83;0.90;;;14.70;99.90;;;;;;5093316;28;20561;-87
2023/09/20 03:12:05;;;;;;;1.38;0.70;;;14.70;99.90;;;;;;5089949;28;20031;-88
2023/09/20 03:14:34;;;;;;;4.43;1.20;;;14.70;99.90;;;;;;5091051;28;20035;-89
2023/09/20 03:17:03;;;;;;;5.25;1.80;;;14.80;99.90;;;;;;5089369;28;20078;-87
2023/09/20 03:19:29;;;;;;;5.25;1.20;;;14.70;99.90;;;;;;5090216;28;20517;-88
2023/09/20 03:21:55;;;;;;;1.65;0.77;;;14.70;99.90;;;;;;5090657;28;20024;-85
2023/09/20 03:24:20;;;;;;;2.40;1.00;;;14.60;99.90;;;;;;5090346;28;20025;-85
2023/09/20 03:26:46;;;;;;;3.22;1.52;;;14.60;99.90;;;;;;5089557;28;20031;-86
2023/09/20 03:29:12;;;;;;;3.72;1.27;;;14.50;99.90;;;;;;5088715;28;20031;-87
2023/09/20 03:31:38;;;;;;;3.38;1.45;;;14.40;99.90;;;;;;5090423;28;20035;-87
2023/09/20 03:34:05;;;;;;;3.35;1.30;;;14.40;99.90;;;;;;5090955;28;20036;-86
2023/09/20 03:36:32;;;;;;;3.60;1.13;;;14.30;99.90;;;;;;5090599;28;20048;-88
2023/09/20 03:38:59;;;;;;;1.30;0.60;;;14.20;99.90;;;;;;5090549;28;20024;-86
2023/09/20 03:41:24;;;;;;;3.42;0.70;;;14.20;99.90;;;;;;5089954;28;20027;-88
2023/09/20 03:43:51;;;;;;;1.88;0.90;;;14.20;99.90;;;;;;5088664;28;20523;-87
2023/09/20 03:46:16;;;;;;;1.88;0.95;;;14.10;99.90;;;;;;5090456;28;20040;-86
2023/09/20 03:48:43;;;;;;;2.10;0.73;;;14.10;99.90;;;;;;5090280;28;20093;-87
2023/09/20 03:51:15;;;;;;;4.90;1.10;;;14.10;99.90;;;;;;5092841;28;20883;-87
2023/09/20 03:53:42;;;;;;;2.55;0.70;;;14.10;99.90;;;;;;5093004;28;20097;-88
2023/09/20 03:56:11;;;;;;;2.40;0.80;;;14.10;99.90;;;;;;5094248;28;20560;-90
2023/09/20 03:58:37;;;;;;;1.77;0.77;;;14.10;99.90;;;;;;5093907;28;20020;-88
2023/09/20 04:01:03;;;;;;;2.92;1.00;;;14.10;99.90;;;;;;5092358;28;20040;-87
2023/09/20 04:03:29;;;;;;;2.92;1.25;;;14.10;99.90;;;;;;5092710;28;20035;-86
2023/09/20 04:05:57;;;;;;;;;;;14.00;99.90;;;;;;5092952;28;20027;-87
2023/09/20 04:08:22;;;;;;;4.22;0.77;;;14.00;99.90;;;;;;5093740;28;19905;-88
2023/09/20 04:10:48;;;;;;;1.67;0.80;;;14.00;99.90;;;;;;5092422;28;20094;-88
2023/09/20 04:13:15;;;;;;;3.75;0.68;;;14.00;99.90;;;;;;5092180;28;20162;-88
2023/09/20 04:15:42;;;;;;;2.03;0.70;;;14.00;99.90;;;;;;5091038;28;20040;-85
2023/09/20 04:18:08;;;;;;;2.08;0.80;;;14.00;99.90;;;;;;5091973;28;20097;-86
2023/09/20 04:20:34;;;;;;;4.75;1.17;;;14.00;99.90;;;;;;5092199;28;20042;-90
2023/09/20 04:23:01;;;;;;;2.38;0.70;;;14.00;99.90;;;;;;5093186;28;20021;-87
2023/09/20 04:25:26;;;;;;;2.38;0.70;;;14.00;99.90;;;;;;5092528;28;20073;-86
2023/09/20 04:27:52;;;;;;;2.50;1.20;;;13.90;99.90;;;;;;5091387;28;20020;-87
2023/09/20 04:30:18;;;;;;;3.67;0.82;;;13.90;99.90;;;;;;5091644;28;20031;-89
2023/09/20 04:32:44;;;;;;;2.47;0.95;;;13.90;99.90;;;;;;5092049;28;20024;-88
2023/09/20 04:35:09;;;;;;;6.03;1.52;;;13.90;99.90;;;;;;5091553;28;20035;-78
2023/09/20 04:37:35;;;;;;;2.58;0.70;;;13.90;99.90;;;;;;5092487;28;20042;-89
2023/09/20 04:40:01;;;;;;;2.58;1.15;;;13.90;99.90;;;;;;5091680;28;20039;-87
2023/09/20 04:42:27;;;;;;;;;;;13.80;99.90;;;;;;5093024;28;20127;-89
2023/09/20 04:44:53;;;;;;;2.45;0.70;;;13.90;99.90;;;;;;5092715;28;19908;-89
2023/09/20 04:47:19;;;;;;;2.33;0.90;;;13.90;99.90;;;;;;5092963;28;20024;-90
2023/09/20 04:49:45;;;;;;;4.88;0.90;;;13.90;99.90;;;;;;5093135;28;20024;-87
2023/09/20 04:52:11;;;;;;;3.88;1.23;;;13.90;99.90;;;;;;5093163;28;20054;-87
2023/09/20 04:54:39;;;;;;;3.20;1.50;;;13.90;99.90;;;;;;5092329;28;20020;-87
2023/09/20 04:57:05;;;;;;;2.58;1.40;;;14.00;99.90;;;;;;5091577;28;20127;-87
2023/09/20 04:59:32;;;;;;;6.40;2.15;;;14.10;99.90;;;;;;5092205;28;20115;-87
2023/09/20 05:01:59;;;;;;;3.25;1.42;;;14.10;99.90;;;;;;5090998;28;20370;-89
2023/09/20 05:04:24;;;;;;;5.15;1.02;;;14.20;99.90;;;;;;5092349;28;20103;-89
2023/09/20 05:06:53;;;;;;;2.85;1.10;;;14.20;99.90;;;;;;5080583;28;20119;-88
2023/09/20 05:09:18;;;;;;;3.58;1.05;;;14.30;99.90;;;;;;5071843;28;20013;-88
2023/09/20 05:11:45;;;;;;;4.43;1.02;;;14.40;99.90;;;;;;5085172;28;20024;-90
2023/09/20 05:14:11;;;;;;;10.02;1.08;;;14.40;99.90;;;;;;5090404;28;20075;-87
2023/09/20 05:16:36;;;;;;;6.75;1.30;;;14.50;99.90;;;;;;5090493;28;20515;-88
2023/09/20 05:19:03;;;;;;;2.75;1.08;;;14.50;99.90;;;;;;5091838;28;20081;-90
2023/09/20 05:21:28;;;;;;;2.28;0.90;;;14.60;99.90;;;;;;5090580;28;20036;-89
2023/09/20 05:23:54;;;;;;;5.45;1.98;;;14.70;99.90;;;;;;5089996;28;20451;-88
2023/09/20 05:26:21;;;;;;;23.48;1.92;;;14.80;99.90;;;;;;5091287;28;20415;-88
2023/09/20 05:28:47;;;;;;;12.15;1.90;;;15.00;99.90;;;;;;5091101;28;20040;-88
2023/09/20 05:31:14;;;;;;;4.53;1.02;;;15.20;99.90;;;;;;5090193;28;20028;-85
2023/09/20 05:33:39;;;;;;;5.57;1.50;;;15.50;99.90;;;;;;5089702;28;20036;-87
2023/09/20 05:36:06;;;;;;;3.65;1.20;;;15.90;99.90;;;;;;5090639;28;20024;-85
2023/09/20 05:38:32;;;;;;;4.25;1.80;;;16.30;99.90;;;;;;5091354;28;20031;-85
2023/09/20 05:40:57;;;;;;;5.13;1.40;;;16.70;99.90;;;;;;5089464;28;20028;-85
2023/09/20 05:43:23;;;;;;;7.32;1.27;;;17.10;99.90;;;;;;5090954;28;20063;-84
2023/09/20 05:45:49;;;;;;;5.03;1.15;;;17.40;99.90;;;;;;5090777;28;20062;-85
2023/09/20 05:48:16;;;;;;;8.50;1.58;;;17.70;99.90;;;;;;5091134;28;20020;-86
2023/09/20 05:50:42;;;;;;;3.45;1.27;;;17.80;99.90;;;;;;5089004;28;20032;-86
2023/09/20 05:53:11;;;;;;;3.13;1.13;;;17.90;99.90;;;;;;5090302;28;20039;-84
2023/09/20 05:55:38;;;;;;;3.38;1.00;;;18.00;99.90;;;;;;5088921;28;20024;-85
2023/09/20 05:58:05;;;;;;;3.75;1.13;;;18.00;99.90;;;;;;5089431;28;20020;-86
2023/09/20 06:00:30;;;;;;;2.05;0.80;;;17.90;99.90;;;;;;5090087;28;20408;-85
2023/09/20 06:02:59;;;;;;;3.88;0.95;;;18.00;99.90;;;;;;5088990;28;20032;-84
2023/09/20 06:05:26;;;;;;;3.10;0.90;;;18.10;99.90;;;;;;5090588;28;20028;-86
2023/09/20 06:07:53;;;;;;;1.48;0.75;;;18.20;99.90;;;;;;5092261;28;20093;-86
2023/09/20 06:10:20;;;;;;;6.28;1.08;;;18.40;99.90;;;;;;5090761;28;20099;-86
2023/09/20 06:12:46;;;;;;;3.92;1.20;;;18.60;99.90;;;;;;5088699;28;20020;-84
2023/09/20 06:15:15;;;;;;;4.32;1.10;;;18.80;99.90;;;;;;5090218;28;20032;-83
2023/09/20 06:17:48;;;;;;;5.88;1.10;;;19.00;99.90;;;;;;5087451;28;20038;-84
2023/09/20 06:20:20;;;;;;;3.67;1.50;;;19.30;99.90;;;;;;5089881;28;20039;-83
2023/09/20 06:22:49;;;;;;;2.38;0.90;;;19.60;99.90;;;;;;5089762;28;20082;-85
2023/09/20 06:25:15;;;;;;;2.80;1.30;;;20.00;99.90;;;;;;5088811;28;20516;-84
2023/09/20 06:27:41;;;;;;;4.28;1.33;;;20.50;99.90;;;;;;5090076;28;20107;-83
2023/09/20 06:30:12;;;;;;;4.68;2.00;;;21.10;99.90;;;;;;5088505;28;20178;-84
2023/09/20 06:32:38;;;;;;;5.78;1.77;;;21.90;99.90;;;;;;5088676;28;20145;-84
2023/09/20 06:35:04;;;;;;;4.38;1.80;;;22.70;99.90;;;;;;5090104;28;20020;-83
2023/09/20 06:37:30;;;;;;;4.72;1.80;;;23.60;99.90;;;;;;5088196;28;20032;-83
2023/09/20 06:39:56;;;;;;;4.93;2.50;;;24.30;99.90;;;;;;5088209;28;20028;-84
2023/09/20 06:42:25;;;;;;;4.85;2.45;;;25.00;96.20;;;;;;5088582;28;20040;-83
2023/09/20 06:44:52;;;;;;;3.58;2.53;;;25.50;93.20;;;;;;5088431;28;20514;-84
2023/09/20 06:47:18;;;;;;;9.52;2.00;;;26.00;89.60;;;;;;5089583;28;20036;-84
2023/09/20 06:49:44;;;;;;;4.70;1.90;;;26.10;87.60;;;;;;5088239;28;20048;-84
2023/09/20 06:52:11;;;;;;;6.15;2.10;;;26.30;85.70;;;;;;5087906;28;20132;-83
2023/09/20 06:54:38;;;;;;;4.78;2.20;;;26.80;82.10;;;;;;5088502;28;20024;-82
2023/09/20 06:57:04;;;;;;;8.35;2.28;;;27.10;79.30;;;;;;5089188;28;20031;-84
2023/09/20 06:59:31;;;;;;;6.05;1.98;;;27.40;76.30;;;;;;5089129;28;20615;-84
2023/09/20 07:02:00;;;;;;;3.15;1.60;;;27.70;73.40;;;;;;5087930;28;20028;-85
2023/09/20 07:04:26;;;;;;;3.42;1.40;;;28.00;72.70;;;;;;5089451;28;20032;-84
2023/09/20 07:06:55;;;;;;;5.20;2.08;;;28.40;68.70;;;;;;5087992;28;20638;-85
2023/09/20 07:09:22;;;;;;;7.82;1.45;;;28.50;68.20;;;;;;5088378;28;20027;-85
2023/09/20 07:11:50;;;;;;;3.22;1.45;;;28.90;66.60;;;;;;5087918;28;20086;-84
2023/09/20 07:14:23;;;;;;;4.50;1.23;;;29.10;65.10;;;;;;5088383;28;20077;-84
2023/09/20 07:16:51;;;;;;;6.15;1.25;;;29.50;62.10;;;;;;5089225;28;20114;-84
2023/09/20 07:19:18;;;;;;;3.00;1.60;;;29.90;60.70;;;;;;5088209;28;20067;-83
2023/09/20 07:21:47;;;;;;;10.75;1.23;;;30.10;59.60;;;;;;5089411;28;20039;-83
2023/09/20 07:24:13;;;;;;;4.15;1.35;;;30.00;59.20;;;;;;5090167;28;20036;-85
2023/09/20 07:26:45;;;;;;;3.67;0.90;;;30.10;58.50;;;;;;5091934;28;20506;-83
2023/09/20 07:29:13;;;;;;;2.92;1.13;;;30.30;57.50;;;;;;5091921;28;20043;-83
2023/09/20 07:31:38;;;;;;;5.07;1.00;;;30.00;58.30;;;;;;5091859;28;20111;-83
2023/09/20 07:34:04;;;;;;;6.40;1.27;;;30.10;57.70;;;;;;5091510;28;20115;-83
2023/09/20 07:36:33;;;;;;;2.47;0.90;;;30.20;57.10;;;;;;5092618;28;20032;-83
2023/09/20 07:39:04;;;;;;;2.50;1.08;;;30.30;56.90;;;;;;5092721;28;20668;-85
2023/09/20 07:41:30;;;;;;;1.42;0.50;;;30.30;56.80;;;;;;5092868;28;20032;-84
2023/09/20 07:43:56;;;;;;;7.68;1.45;;;30.40;55.80;;;;;;5093311;28;20035;-86
2023/09/20 07:46:23;;;;;;;2.30;0.80;;;30.40;55.90;;;;;;5092846;28;20024;-84
2023/09/20 07:48:52;;;;;;;3.72;0.70;;;30.00;56.00;;;;;;5092743;28;20044;-85
2023/09/20 07:51:28;;;;;;;4.00;0.60;;;29.60;57.80;;;;;;5092637;28;20016;-85
2023/09/20 07:53:55;;;;;;;7.10;1.08;;;29.30;58.70;;;;;;5092762;28;20024;-84
2023/09/20 07:56:20;;;;;;;3.55;1.10;;;29.40;58.90;;;;;;5091105;28;20128;-85
2023/09/20 07:58:47;;;;;;;2.58;0.70;;;29.60;58.10;;;;;;5092597;28;20111;-83
2023/09/20 08:01:16;;;;;;;2.13;0.73;;;29.20;57.30;;;;;;5092171;28;20105;-83
2023/09/20 08:03:50;;;;;;;2.17;0.70;;;28.80;58.40;;;;;;5092458;28;20028;-82
2023/09/20 08:06:17;;;;;;;3.40;0.50;;;28.80;59.30;;;;;;5092634;28;20595;-83
2023/09/20 08:08:43;;;;;;;10.52;0.70;;;28.60;58.90;;;;;;5090518;28;20024;-83
2023/09/20 08:11:08;;;;;;;2.47;0.63;;;28.30;60.20;;;;;;5093002;28;20055;-84
2023/09/20 08:13:34;;;;;;;1.55;0.90;;;28.10;60.70;;;;;;5088270;28;20099;-84
2023/09/20 08:16:02;;;;;;;8.27;1.20;;;28.10;61.20;;;;;;5089320;28;20078;-85
2023/09/20 08:21:13;;;;;;;3.10;0.80;;;28.80;59.10;;;;;;5092270;28;20084;-84
2023/09/20 08:59:53;;;;;;;1.88;0.60;;;32.60;45.70;;;;;;5091343;28;20074;-83
2023/09/20 09:02:22;;;;;;;1.83;0.50;;;33.00;45.30;;;;;;5091836;28;20032;-84
2023/09/20 09:04:57;;;;;;;2.25;0.60;;;33.30;45.80;;;;;;5090695;28;20484;-84
2023/09/20 09:07:23;;;;;;;2.45;0.70;;;33.60;44.20;;;;;;5091782;28;20504;-84
2023/09/20 09:09:53;;;;;;;2.80;0.60;;;33.50;43.00;;;;;;5091331;28;20028;-85
2023/09/20 09:12:19;;;;;;;2.55;0.52;;;33.60;41.30;;;;;;5092437;28;20089;-84
2023/09/20 09:14:48;;;;;;;3.33;0.52;;;33.40;42.20;;;;;;5090878;28;20034;-85
2023/09/20 09:17:14;;;;;;;1.77;0.73;;;33.70;41.30;;;;;;5090979;28;20052;-84
2023/09/20 09:19:40;;;;;;;1.20;0.50;;;34.00;40.00;;;;;;5091235;28;20060;-84
2023/09/20 09:22:07;;;;;;;2.33;1.33;;;33.80;40.40;;;;;;5091183;28;20523;-85
2023/09/20 09:24:47;;;;;;;5.00;1.30;;;33.60;40.90;;;;;;5090792;28;20027;-82
2023/09/20 09:27:14;;;;;;;1.77;0.70;;;33.90;39.80;;;;;;5086569;28;20075;-84
2023/09/20 09:29:43;;;;;;;1.13;0.50;;;33.90;39.90;;;;;;5091044;28;20073;-85
2023/09/20 09:32:09;;;;;;;2.33;0.85;;;34.00;39.80;;;;;;5090851;28;20382;-85
2023/09/20 09:34:34;;;;;;;1.33;0.70;;;34.00;39.70;;;;;;5090835;28;20028;-84
2023/09/20 09:37:00;;;;;;;3.83;0.70;;;33.70;39.70;;;;;;5089721;28;20031;-84
2023/09/20 09:39:26;;;;;;;1.50;0.60;;;33.60;39.60;;;;;;5090751;28;20036;-84
2023/09/20 09:41:53;;;;;;;1.23;0.50;;;33.70;39.80;;;;;;5089342;28;20076;-84
2023/09/20 09:44:20;;;;;;;1.35;0.57;;;33.80;39.70;;;;;;5090690;28;20099;-85
2023/09/20 09:46:45;;;;;;;1.30;0.52;;;33.60;40.20;;;;;;5090483;28;20024;-85
2023/09/20 09:49:11;;;;;;;1.15;0.60;;;33.70;39.90;;;;;;5090638;28;20452;-85
2023/09/20 09:51:45;;;;;;;4.05;0.80;;;33.90;40.60;;;;;;5090916;28;20020;-85
2023/09/20 09:54:15;;;;;;;5.10;1.60;;;34.30;39.40;;;;;;5090521;28;20516;-83
2023/09/20 09:56:41;;;;;;;1.30;0.77;;;34.50;39.40;;;;;;5090300;28;20024;-84
2023/09/20 09:59:07;;;;;;;1.08;0.60;;;34.40;39.80;;;;;;5090178;28;20028;-85
2023/09/20 10:01:40;;;;;;;1.65;0.50;;;34.60;39.50;;;;;;5090019;28;20118;-83
2023/09/20 10:04:08;;;;;;;2.45;0.50;;;34.90;39.50;;;;;;5090300;28;20020;-85
2023/09/20 10:07:05;;;;;;;2.90;0.70;;;34.90;39.00;;;;;;5088798;28;20036;-85
2023/09/20 10:09:39;;;;;;;1.45;0.60;;;34.70;39.20;;;;;;5087950;28;20439;-84
2023/09/20 10:12:08;;;;;;;3.53;1.45;;;34.70;40.00;;;;;;5089382;28;20028;-85
2023/09/20 10:14:37;;;;;;;1.83;1.05;;;34.70;40.10;;;;;;5090549;28;20058;-84
2023/09/20 10:17:06;;;;;;;3.08;0.50;;;34.60;39.80;;;;;;5090695;28;20048;-85
2023/09/20 10:19:33;;;;;;;1.88;0.80;;;34.60;40.30;;;;;;5089717;28;20031;-84
2023/09/20 10:22:08;;;;;;;3.40;1.10;;;34.10;40.10;;;;;;5090422;28;20040;-84
2023/09/20 10:24:54;;;;;;;3.40;0.70;;;33.20;41.50;;;;;;5091020;28;20138;-84
2023/09/20 10:27:22;;;;;;;5.65;0.80;;;32.30;43.50;;;;;;5091194;28;20393;-84
2023/09/20 10:30:09;;;;;;;5.82;0.90;;;31.50;44.90;;;;;;5091346;28;20111;-84
2023/09/20 10:32:56;;;;;;;4.68;0.70;;;31.00;45.70;;;;;;5091114;28;20120;-84
2023/09/20 10:35:32;;;;;;;1.27;0.50;;;30.20;47.00;;;;;;5090776;28;20448;-84
2023/09/20 10:38:10;;;;;;;3.17;0.68;;;29.70;48.40;;;;;;5090833;28;20027;-82
2023/09/20 10:40:45;;;;;;;5.22;0.93;;;29.40;49.00;;;;;;5087888;28;20377;-84
2023/09/20 10:43:41;;;;;;;3.17;0.90;;;29.30;49.70;;;;;;5088473;28;20054;-83
2023/09/20 10:46:12;;;;;;;2.85;0.60;;;28.80;50.20;;;;;;5090652;28;20028;-83
2023/09/20 10:48:48;;;;;;;2.35;0.65;;;28.40;51.60;;;;;;5091280;28;20027;-81
2023/09/20 10:51:49;;;;;;;4.72;0.90;;;28.10;51.60;;;;;;5090837;28;20476;-83
2023/09/20 10:54:19;;;;;;;1.80;0.63;;;27.70;52.90;;;;;;5090012;28;20032;-82
2023/09/20 10:56:51;;;;;;;2.13;0.60;;;27.60;53.60;;;;;;5090186;28;20028;-83
2023/09/20 10:59:25;;;;;;;4.18;0.80;;;27.50;54.50;;;;;;5088876;28;20506;-83
2023/09/20 11:02:05;;;;;;;1.30;0.47;;;27.60;54.80;;;;;;5089876;28;20036;-85
2023/09/20 11:04:31;;;;;;;2.63;0.80;;;27.60;54.70;;;;;;5089495;28;20035;-84
2023/09/20 11:06:59;;;;;;;1.38;0.68;;;27.60;55.20;;;;;;5090493;28;20028;-84
2023/09/20 11:09:31;;;;;;;1.58;0.73;;;27.60;54.90;;;;;;5086416;28;20058;-85
2023/09/20 11:12:06;;;;;;;1.63;0.70;;;27.50;54.80;;;;;;5073729;28;20017;-84
2023/09/20 11:14:33;;;;;;;;;;;27.50;54.60;;;;;;5087332;28;20031;-84
2023/09/20 11:16:59;;;;;;;5.72;0.85;;;27.50;54.40;;;;;;5089103;28;20377;-84
2023/09/20 11:19:26;;;;;;;1.65;0.60;;;27.40;54.90;;;;;;5088119;28;20111;-83
2023/09/20 11:21:52;;;;;;;5.43;0.73;;;27.30;55.00;;;;;;5089251;28;20031;-85
2023/09/20 11:24:19;;;;;;;2.90;0.60;;;27.40;55.70;;;;;;5089534;28;20451;-84
2023/09/20 11:26:47;;;;;;;2.28;0.60;;;27.50;54.90;;;;;;5089462;28;20021;-84
2023/09/20 11:29:16;;;;;;;2.08;0.88;;;27.50;53.80;;;;;;5089460;28;20105;-84
2023/09/20 11:31:45;;;;;;;1.17;0.60;;;27.60;54.70;;;;;;5089427;28;20435;-84
2023/09/20 11:34:11;;;;;;;2.40;1.08;;;27.60;54.70;;;;;;5089011;28;20496;-84
2023/09/20 11:36:42;;;;;;;3.90;0.60;;;27.50;54.20;;;;;;5089266;28;20570;-84
2023/09/20 11:39:08;;;;;;;2.10;0.60;;;27.60;53.90;;;;;;5087651;28;20052;-84
2023/09/20 11:41:38;;;;;;;4.45;0.70;;;27.60;54.00;;;;;;5089418;28;20040;-84
2023/09/20 11:44:06;;;;;;;1.15;0.60;;;27.70;54.00;;;;;;5089162;28;20024;-84
2023/09/20 11:46:35;;;;;;;1.83;0.50;;;27.80;54.20;;;;;;5089028;28;20031;-83
2023/09/20 11:49:03;;;;;;;5.47;0.70;;;27.90;53.90;;;;;;5089193;28;20028;-84
2023/09/20 11:51:30;;;;;;;2.85;0.57;;;27.90;53.10;;;;;;5088831;28;20542;-85
2023/09/20 11:53:57;;;;;;;6.20;0.80;;;27.90;53.80;;;;;;5087895;28;20035;-84
2023/09/20 11:56:29;;;;;;;2.13;0.55;;;27.80;53.60;;;;;;5089012;28;20447;-84
2023/09/20 11:59:00;;;;;;;1.73;0.50;;;27.70;53.80;;;;;;5088820;28;20039;-85
2023/09/20 12:01:30;;;;;;;2.60;0.57;;;27.70;54.60;;;;;;5088955;28;20115;-85
2023/09/20 12:03:56;;;;;;;2.25;0.70;;;27.70;54.40;;;;;;5088201;28;20024;-84
2023/09/20 12:06:22;;;;;;;2.10;0.50;;;27.70;53.70;;;;;;5089114;28;20056;-85
2023/09/20 12:08:48;;;;;;;1.88;0.60;;;27.80;53.40;;;;;;5088712;28;20140;-83
2023/09/20 12:11:14;;;;;;;2.40;0.68;;;27.90;53.40;;;;;;5090572;28;20314;-84
2023/09/20 12:13:43;;;;;;;1.52;0.55;;;27.80;53.60;;;;;;5092454;28;20099;-83
2023/09/20 12:16:09;;;;;;;3.85;0.70;;;27.80;53.80;;;;;;5090680;28;20518;-84
2023/09/20 12:18:38;;;;;;;2.97;0.77;;;27.90;53.80;;;;;;5091383;28;20052;-85
2023/09/20 12:21:04;;;;;;;3.50;0.55;;;27.90;53.70;;;;;;5092503;28;20032;-83
2023/09/20 12:23:30;;;;;;;2.88;0.60;;;28.00;53.50;;;;;;5092708;28;20111;-84
2023/09/20 12:25:56;;;;;;;6.88;0.75;;;28.10;53.10;;;;;;5092603;28;20115;-85
2023/09/20 12:28:23;;;;;;;4.55;0.60;;;28.10;53.40;;;;;;5090944;28;20119;-84
2023/09/20 12:30:50;;;;;;;5.32;0.60;;;28.10;53.80;;;;;;5091929;28;20022;-84
2023/09/20 12:33:19;;;;;;;1.80;0.50;;;28.10;53.00;;;;;;5091135;28;20515;-84
2023/09/20 12:35:46;;;;;;;2.53;0.50;;;28.10;52.80;;;;;;5090949;28;20401;-85
2023/09/20 12:38:11;;;;;;;1.05;0.55;;;28.00;52.30;;;;;;5090572;28;20088;-84
2023/09/20 12:40:37;;;;;;;2.33;0.80;;;27.80;52.40;;;;;;5091400;28;20563;-86
2023/09/20 12:43:03;;;;;;;1.58;0.55;;;27.60;53.00;;;;;;5087103;28;20030;-84
2023/09/20 12:45:29;;;;;;;1.77;0.55;;;27.50;53.50;;;;;;5083584;28;20028;-84
2023/09/20 12:47:55;;;;;;;2.17;0.50;;;27.60;54.10;;;;;;5083125;28;20485;-86
2023/09/20 12:50:21;;;;;;;2.05;0.50;;;27.70;53.70;;;;;;5104287;28;20085;-84
2023/09/20 12:52:48;;;;;;;3.13;0.50;;;27.70;53.60;;;;;;5111889;28;20032;-85
2023/09/20 12:55:14;;;;;;;3.53;0.93;;;27.90;53.90;;;;;;5110608;28;20449;-85
2023/09/20 12:57:43;;;;;;;1.42;0.55;;;28.00;54.20;;;;;;5112153;28;20020;-84
2023/09/20 13:00:12;;;;;;;3.67;0.75;;;28.00;53.00;;;;;;5112285;28;20499;-84
2023/09/20 13:02:38;;;;;;;3.10;0.50;;;28.10;52.40;;;;;;5111895;28;20424;-84
2023/09/20 13:05:06;;;;;;;3.58;0.68;;;28.10;52.70;;;;;;5106100;28;20024;-83
2023/09/20 13:07:32;;;;;;;6.32;0.95;;;28.10;53.10;;;;;;5099694;28;20147;-85
2023/09/20 13:09:58;;;;;;;2.85;0.88;;;28.10;52.50;;;;;;5101224;28;20099;-86
2023/09/20 13:12:24;;;;;;;1.02;0.65;;;28.20;53.00;;;;;;5102756;28;20530;-84
2023/09/20 13:14:50;;;;;;;1.77;0.70;;;28.20;52.40;;;;;;5111398;28;20035;-85
2023/09/20 13:17:16;;;;;;;2.20;0.63;;;28.30;52.10;;;;;;5070874;28;20131;-84
2023/09/20 13:19:42;;;;;;;4.40;0.82;;;28.40;52.30;;;;;;5070671;28;20497;-84
2023/09/20 13:22:11;;;;;;;2.13;0.60;;;28.50;51.70;;;;;;5069648;28;20082;-85
2023/09/20 13:24:39;;;;;;;3.05;0.60;;;28.50;51.60;;;;;;5070564;28;20024;-82
2023/09/20 13:27:05;;;;;;;3.22;0.50;;;28.60;51.30;;;;;;5071428;28;20020;-83
2023/09/20 13:29:30;;;;;;;1.75;0.80;;;28.60;52.60;;;;;;5071054;28;20472;-85
2023/09/20 13:31:56;;;;;;;3.45;0.65;;;28.60;51.60;;;;;;5070580;28;20056;-84